sensor_id;sensor_type;location;lat;lon;timestamp;P1;durP1;ratioP1;P2;durP2;ratioP2
68229;SDS011;55048;52.220;5.160;2023-06-22T00:02:13;4.32;;;2.63;;
68229;SDS011;55048;52.220;5.160;2023-06-22T00:04:38;3.97;;;2.55;;
68229;SDS011;55048;52.220;5.160;2023-06-22T00:07:04;4.55;;;2.60;;
68229;SDS011;55048;52.220;5.160;2023-06-22T00:09:30;5.28;;;3.03;;
68229;SDS011;55048;52.220;5.160;2023-06-22T00:11:56;5.50;;;3.55;;
68229;SDS011;55048;52.220;5.160;2023-06-22T00:14:21;7.20;;;3.53;;
68229;SDS011;55048;52.220;5.160;2023-06-22T00:16:47;6.15;;;4.15;;
68229;SDS011;55048;52.220;5.160;2023-06-22T00:19:14;6.43;;;4.10;;
68229;SDS011;55048;52.220;5.160;2023-06-22T00:21:40;5.75;;;3.90;;
68229;SDS011;55048;52.220;5.160;2023-06-22T00:24:05;7.00;;;3.28;;
68229;SDS011;55048;52.220;5.160;2023-06-22T00:26:31;6.70;;;4.38;;
68229;SDS011;55048;52.220;5.160;2023-06-22T00:28:57;6.82;;;4.20;;
68229;SDS011;55048;52.220;5.160;2023-06-22T00:31:22;6.05;;;4.20;;
68229;SDS011;55048;52.220;5.160;2023-06-22T00:33:48;7.47;;;3.92;;
68229;SDS011;55048;52.220;5.160;2023-06-22T00:36:15;7.85;;;4.68;;
68229;SDS011;55048;52.220;5.160;2023-06-22T00:38:43;6.30;;;5.28;;
68229;SDS011;55048;52.220;5.160;2023-06-22T00:41:08;5.40;;;4.72;;
68229;SDS011;55048;52.220;5.160;2023-06-22T00:43:34;8.95;;;5.93;;
68229;SDS011;55048;52.220;5.160;2023-06-22T00:46:02;9.40;;;5.38;;
68229;SDS011;55048;52.220;5.160;2023-06-22T00:48:27;7.53;;;5.40;;
68229;SDS011;55048;52.220;5.160;2023-06-22T00:50:53;9.80;;;5.25;;
68229;SDS011;55048;52.220;5.160;2023-06-22T00:53:22;7.05;;;4.88;;
68229;SDS011;55048;52.220;5.160;2023-06-22T00:55:48;8.63;;;5.40;;
68229;SDS011;55048;52.220;5.160;2023-06-22T00:58:16;5.80;;;4.70;;
68229;SDS011;55048;52.220;5.160;2023-06-22T01:00:47;5.00;;;4.07;;
68229;SDS011;55048;52.220;5.160;2023-06-22T01:03:13;8.63;;;4.75;;
68229;SDS011;55048;52.220;5.160;2023-06-22T01:05:39;7.03;;;4.90;;
68229;SDS011;55048;52.220;5.160;2023-06-22T01:10:44;14.65;;;5.18;;
68229;SDS011;55048;52.220;5.160;2023-06-22T01:13:21;9.15;;;5.70;;
68229;SDS011;55048;52.220;5.160;2023-06-22T01:18:28;7.30;;;5.18;;
68229;SDS011;55048;52.220;5.160;2023-06-22T01:20:59;8.43;;;5.10;;
68229;SDS011;55048;52.220;5.160;2023-06-22T01:26:17;8.68;;;6.47;;
68229;SDS011;55048;52.220;5.160;2023-06-22T01:28:53;8.70;;;5.82;;
68229;SDS011;55048;52.220;5.160;2023-06-22T01:31:22;9.13;;;6.03;;
68229;SDS011;55048;52.220;5.160;2023-06-22T01:33:50;7.80;;;6.45;;
68229;SDS011;55048;52.220;5.160;2023-06-22T01:36:18;12.63;;;6.22;;
68229;SDS011;55048;52.220;5.160;2023-06-22T01:38:45;10.57;;;6.63;;
68229;SDS011;55048;52.220;5.160;2023-06-22T01:41:17;10.77;;;7.20;;
68229;SDS011;55048;52.220;5.160;2023-06-22T01:43:45;10.57;;;7.80;;
68229;SDS011;55048;52.220;5.160;2023-06-22T01:46:12;9.20;;;6.90;;
68229;SDS011;55048;52.220;5.160;2023-06-22T01:48:38;10.95;;;7.30;;
68229;SDS011;55048;52.220;5.160;2023-06-22T01:51:04;13.07;;;7.15;;
68229;SDS011;55048;52.220;5.160;2023-06-22T01:53:30;12.52;;;8.15;;
68229;SDS011;55048;52.220;5.160;2023-06-22T01:55:55;14.63;;;8.65;;
68229;SDS011;55048;52.220;5.160;2023-06-22T01:58:22;13.05;;;8.52;;
68229;SDS011;55048;52.220;5.160;2023-06-22T02:00:55;11.43;;;7.97;;
68229;SDS011;55048;52.220;5.160;2023-06-22T02:03:30;15.77;;;9.30;;
68229;SDS011;55048;52.220;5.160;2023-06-22T02:06:03;13.30;;;8.90;;
68229;SDS011;55048;52.220;5.160;2023-06-22T02:08:34;13.20;;;8.45;;
68229;SDS011;55048;52.220;5.160;2023-06-22T02:11:03;14.88;;;8.82;;
68229;SDS011;55048;52.220;5.160;2023-06-22T02:13:30;11.38;;;8.77;;
68229;SDS011;55048;52.220;5.160;2023-06-22T02:15:56;13.70;;;9.07;;
68229;SDS011;55048;52.220;5.160;2023-06-22T02:18:21;14.05;;;9.57;;
68229;SDS011;55048;52.220;5.160;2023-06-22T02:20:47;14.63;;;9.95;;
68229;SDS011;55048;52.220;5.160;2023-06-22T02:23:12;11.65;;;8.32;;
68229;SDS011;55048;52.220;5.160;2023-06-22T02:25:38;18.23;;;10.57;;
68229;SDS011;55048;52.220;5.160;2023-06-22T02:28:03;14.27;;;10.05;;
68229;SDS011;55048;52.220;5.160;2023-06-22T02:30:29;15.35;;;9.65;;
68229;SDS011;55048;52.220;5.160;2023-06-22T02:32:54;13.55;;;10.60;;
68229;SDS011;55048;52.220;5.160;2023-06-22T02:35:27;15.35;;;10.45;;
68229;SDS011;55048;52.220;5.160;2023-06-22T02:37:57;19.42;;;10.73;;
68229;SDS011;55048;52.220;5.160;2023-06-22T02:40:26;18.52;;;11.13;;
68229;SDS011;55048;52.220;5.160;2023-06-22T02:42:51;15.63;;;11.07;;
68229;SDS011;55048;52.220;5.160;2023-06-22T02:45:17;16.92;;;10.73;;
68229;SDS011;55048;52.220;5.160;2023-06-22T02:47:42;17.23;;;10.48;;
68229;SDS011;55048;52.220;5.160;2023-06-22T02:50:08;15.15;;;11.05;;
68229;SDS011;55048;52.220;5.160;2023-06-22T02:52:34;17.02;;;11.00;;
68229;SDS011;55048;52.220;5.160;2023-06-22T02:55:00;16.05;;;11.20;;
68229;SDS011;55048;52.220;5.160;2023-06-22T02:57:27;17.02;;;11.60;;
68229;SDS011;55048;52.220;5.160;2023-06-22T02:59:52;15.73;;;11.70;;
68229;SDS011;55048;52.220;5.160;2023-06-22T03:02:18;20.05;;;12.32;;
68229;SDS011;55048;52.220;5.160;2023-06-22T03:04:46;18.40;;;12.00;;
68229;SDS011;55048;52.220;5.160;2023-06-22T03:07:14;20.38;;;12.20;;
68229;SDS011;55048;52.220;5.160;2023-06-22T03:09:40;18.08;;;11.73;;
68229;SDS011;55048;52.220;5.160;2023-06-22T03:12:08;16.65;;;11.73;;
68229;SDS011;55048;52.220;5.160;2023-06-22T03:14:41;16.40;;;11.85;;
68229;SDS011;55048;52.220;5.160;2023-06-22T03:17:08;19.00;;;12.00;;
68229;SDS011;55048;52.220;5.160;2023-06-22T03:19:35;19.00;;;11.88;;
68229;SDS011;55048;52.220;5.160;2023-06-22T03:22:01;24.50;;;12.60;;
68229;SDS011;55048;52.220;5.160;2023-06-22T03:24:26;18.85;;;12.23;;
68229;SDS011;55048;52.220;5.160;2023-06-22T03:26:54;17.50;;;12.13;;
68229;SDS011;55048;52.220;5.160;2023-06-22T03:29:21;21.83;;;12.10;;
68229;SDS011;55048;52.220;5.160;2023-06-22T03:31:47;19.90;;;12.05;;
68229;SDS011;55048;52.220;5.160;2023-06-22T03:34:13;18.50;;;12.00;;
68229;SDS011;55048;52.220;5.160;2023-06-22T03:36:38;18.95;;;12.10;;
68229;SDS011;55048;52.220;5.160;2023-06-22T03:39:04;19.02;;;11.82;;
68229;SDS011;55048;52.220;5.160;2023-06-22T03:41:29;18.45;;;12.15;;
68229;SDS011;55048;52.220;5.160;2023-06-22T03:43:55;19.42;;;13.02;;
68229;SDS011;55048;52.220;5.160;2023-06-22T03:46:20;17.52;;;12.02;;
68229;SDS011;55048;52.220;5.160;2023-06-22T03:48:46;21.08;;;12.90;;
68229;SDS011;55048;52.220;5.160;2023-06-22T03:51:11;19.02;;;12.80;;
68229;SDS011;55048;52.220;5.160;2023-06-22T03:53:37;17.75;;;12.45;;
68229;SDS011;55048;52.220;5.160;2023-06-22T03:56:02;17.27;;;12.18;;
68229;SDS011;55048;52.220;5.160;2023-06-22T03:58:28;21.30;;;12.00;;
68229;SDS011;55048;52.220;5.160;2023-06-22T04:00:58;22.75;;;12.30;;
68229;SDS011;55048;52.220;5.160;2023-06-22T04:03:25;19.50;;;12.30;;
68229;SDS011;55048;52.220;5.160;2023-06-22T04:05:50;18.30;;;12.82;;
68229;SDS011;55048;52.220;5.160;2023-06-22T04:08:16;20.73;;;13.43;;
68229;SDS011;55048;52.220;5.160;2023-06-22T04:10:41;22.38;;;13.30;;
68229;SDS011;55048;52.220;5.160;2023-06-22T04:13:07;20.60;;;13.80;;
68229;SDS011;55048;52.220;5.160;2023-06-22T04:15:32;20.08;;;13.68;;
68229;SDS011;55048;52.220;5.160;2023-06-22T04:17:58;19.42;;;13.73;;
68229;SDS011;55048;52.220;5.160;2023-06-22T04:20:23;22.00;;;14.75;;
68229;SDS011;55048;52.220;5.160;2023-06-22T04:22:52;20.83;;;13.93;;
68229;SDS011;55048;52.220;5.160;2023-06-22T04:25:18;25.27;;;14.00;;
68229;SDS011;55048;52.220;5.160;2023-06-22T04:27:45;24.17;;;15.77;;
68229;SDS011;55048;52.220;5.160;2023-06-22T04:30:10;24.38;;;16.10;;
68229;SDS011;55048;52.220;5.160;2023-06-22T04:32:37;24.65;;;15.02;;
68229;SDS011;55048;52.220;5.160;2023-06-22T04:35:03;25.27;;;15.65;;
68229;SDS011;55048;52.220;5.160;2023-06-22T04:37:30;23.80;;;15.57;;
68229;SDS011;55048;52.220;5.160;2023-06-22T04:39:56;25.35;;;17.02;;
68229;SDS011;55048;52.220;5.160;2023-06-22T04:42:21;30.65;;;17.13;;
68229;SDS011;55048;52.220;5.160;2023-06-22T04:44:46;32.42;;;18.52;;
68229;SDS011;55048;52.220;5.160;2023-06-22T04:47:12;21.80;;;15.65;;
68229;SDS011;55048;52.220;5.160;2023-06-22T04:49:37;23.95;;;16.63;;
68229;SDS011;55048;52.220;5.160;2023-06-22T04:52:03;30.08;;;17.35;;
68229;SDS011;55048;52.220;5.160;2023-06-22T04:54:30;26.48;;;16.33;;
68229;SDS011;55048;52.220;5.160;2023-06-22T04:57:01;25.63;;;17.13;;
68229;SDS011;55048;52.220;5.160;2023-06-22T04:59:28;27.15;;;17.80;;
68229;SDS011;55048;52.220;5.160;2023-06-22T05:01:58;30.15;;;18.83;;
68229;SDS011;55048;52.220;5.160;2023-06-22T05:04:26;27.42;;;18.15;;
68229;SDS011;55048;52.220;5.160;2023-06-22T05:07:01;25.52;;;18.20;;
68229;SDS011;55048;52.220;5.160;2023-06-22T05:09:28;28.63;;;19.48;;
68229;SDS011;55048;52.220;5.160;2023-06-22T05:11:54;29.38;;;18.80;;
68229;SDS011;55048;52.220;5.160;2023-06-22T05:14:21;31.95;;;19.95;;
68229;SDS011;55048;52.220;5.160;2023-06-22T05:16:48;28.45;;;19.10;;
68229;SDS011;55048;52.220;5.160;2023-06-22T05:19:13;33.60;;;20.13;;
68229;SDS011;55048;52.220;5.160;2023-06-22T05:21:39;36.38;;;20.38;;
68229;SDS011;55048;52.220;5.160;2023-06-22T05:24:04;33.53;;;21.25;;
68229;SDS011;55048;52.220;5.160;2023-06-22T05:26:30;30.02;;;20.48;;
68229;SDS011;55048;52.220;5.160;2023-06-22T05:28:57;31.83;;;21.23;;
68229;SDS011;55048;52.220;5.160;2023-06-22T05:31:25;32.97;;;21.58;;
68229;SDS011;55048;52.220;5.160;2023-06-22T05:33:52;31.55;;;22.42;;
68229;SDS011;55048;52.220;5.160;2023-06-22T05:36:19;33.38;;;21.63;;
68229;SDS011;55048;52.220;5.160;2023-06-22T05:38:46;33.38;;;23.13;;
68229;SDS011;55048;52.220;5.160;2023-06-22T05:41:12;36.05;;;22.13;;
68229;SDS011;55048;52.220;5.160;2023-06-22T05:43:38;36.47;;;23.00;;
68229;SDS011;55048;52.220;5.160;2023-06-22T05:46:04;36.28;;;23.55;;
68229;SDS011;55048;52.220;5.160;2023-06-22T05:48:30;36.58;;;23.55;;
68229;SDS011;55048;52.220;5.160;2023-06-22T05:50:56;37.97;;;24.40;;
68229;SDS011;55048;52.220;5.160;2023-06-22T05:53:22;37.80;;;24.65;;
68229;SDS011;55048;52.220;5.160;2023-06-22T05:55:47;34.33;;;20.90;;
68229;SDS011;55048;52.220;5.160;2023-06-22T05:58:13;35.25;;;24.15;;
68229;SDS011;55048;52.220;5.160;2023-06-22T06:00:38;35.20;;;24.85;;
68229;SDS011;55048;52.220;5.160;2023-06-22T06:03:04;33.45;;;23.65;;
68229;SDS011;55048;52.220;5.160;2023-06-22T06:05:31;35.22;;;24.10;;
68229;SDS011;55048;52.220;5.160;2023-06-22T06:07:57;39.17;;;25.00;;
68229;SDS011;55048;52.220;5.160;2023-06-22T06:10:23;35.95;;;23.85;;
68229;SDS011;55048;52.220;5.160;2023-06-22T06:12:48;38.95;;;25.08;;
68229;SDS011;55048;52.220;5.160;2023-06-22T06:15:14;35.00;;;24.20;;
68229;SDS011;55048;52.220;5.160;2023-06-22T06:17:49;32.55;;;22.38;;
68229;SDS011;55048;52.220;5.160;2023-06-22T06:20:17;32.42;;;22.30;;
68229;SDS011;55048;52.220;5.160;2023-06-22T06:22:44;33.75;;;22.23;;
68229;SDS011;55048;52.220;5.160;2023-06-22T06:25:09;32.22;;;21.95;;
68229;SDS011;55048;52.220;5.160;2023-06-22T06:27:35;28.10;;;20.70;;
68229;SDS011;55048;52.220;5.160;2023-06-22T06:30:00;32.28;;;20.77;;
68229;SDS011;55048;52.220;5.160;2023-06-22T06:32:26;28.20;;;19.73;;
68229;SDS011;55048;52.220;5.160;2023-06-22T06:34:51;33.30;;;21.45;;
68229;SDS011;55048;52.220;5.160;2023-06-22T06:37:17;31.30;;;20.23;;
68229;SDS011;55048;52.220;5.160;2023-06-22T06:39:43;28.60;;;20.02;;
68229;SDS011;55048;52.220;5.160;2023-06-22T06:42:09;30.60;;;19.95;;
68229;SDS011;55048;52.220;5.160;2023-06-22T06:44:36;25.75;;;19.17;;
68229;SDS011;55048;52.220;5.160;2023-06-22T06:47:03;25.10;;;18.88;;
68229;SDS011;55048;52.220;5.160;2023-06-22T06:49:29;26.63;;;19.23;;
68229;SDS011;55048;52.220;5.160;2023-06-22T06:51:54;26.70;;;18.83;;
68229;SDS011;55048;52.220;5.160;2023-06-22T06:54:21;25.90;;;18.33;;
68229;SDS011;55048;52.220;5.160;2023-06-22T06:56:47;27.13;;;19.05;;
68229;SDS011;55048;52.220;5.160;2023-06-22T06:59:13;27.00;;;17.80;;
68229;SDS011;55048;52.220;5.160;2023-06-22T07:01:40;26.92;;;18.10;;
68229;SDS011;55048;52.220;5.160;2023-06-22T07:04:06;24.35;;;16.67;;
68229;SDS011;55048;52.220;5.160;2023-06-22T07:06:32;25.58;;;18.25;;
68229;SDS011;55048;52.220;5.160;2023-06-22T07:08:58;24.77;;;17.33;;
68229;SDS011;55048;52.220;5.160;2023-06-22T07:11:24;23.80;;;16.92;;
68229;SDS011;55048;52.220;5.160;2023-06-22T07:13:50;24.80;;;16.30;;
68229;SDS011;55048;52.220;5.160;2023-06-22T07:16:15;26.05;;;16.70;;
68229;SDS011;55048;52.220;5.160;2023-06-22T07:18:41;25.83;;;16.98;;
68229;SDS011;55048;52.220;5.160;2023-06-22T07:21:06;21.50;;;16.00;;
68229;SDS011;55048;52.220;5.160;2023-06-22T07:23:32;22.48;;;15.43;;
68229;SDS011;55048;52.220;5.160;2023-06-22T07:25:58;22.80;;;15.65;;
68229;SDS011;55048;52.220;5.160;2023-06-22T07:28:27;26.33;;;15.43;;
68229;SDS011;55048;52.220;5.160;2023-06-22T07:30:52;22.13;;;16.67;;
68229;SDS011;55048;52.220;5.160;2023-06-22T07:33:18;24.05;;;15.60;;
68229;SDS011;55048;52.220;5.160;2023-06-22T07:35:43;24.48;;;16.88;;
68229;SDS011;55048;52.220;5.160;2023-06-22T07:38:09;23.27;;;16.33;;
68229;SDS011;55048;52.220;5.160;2023-06-22T07:40:34;23.45;;;16.67;;
68229;SDS011;55048;52.220;5.160;2023-06-22T07:43:01;24.63;;;16.75;;
68229;SDS011;55048;52.220;5.160;2023-06-22T07:45:28;22.52;;;15.93;;
68229;SDS011;55048;52.220;5.160;2023-06-22T07:47:54;24.35;;;15.85;;
68229;SDS011;55048;52.220;5.160;2023-06-22T07:50:19;21.58;;;15.35;;
68229;SDS011;55048;52.220;5.160;2023-06-22T07:52:45;23.67;;;15.63;;
68229;SDS011;55048;52.220;5.160;2023-06-22T07:55:12;22.75;;;15.40;;
68229;SDS011;55048;52.220;5.160;2023-06-22T07:57:38;20.25;;;14.38;;
68229;SDS011;55048;52.220;5.160;2023-06-22T08:00:04;20.27;;;15.25;;
68229;SDS011;55048;52.220;5.160;2023-06-22T08:02:42;24.05;;;15.15;;
68229;SDS011;55048;52.220;5.160;2023-06-22T08:05:09;21.73;;;15.98;;
68229;SDS011;55048;52.220;5.160;2023-06-22T08:07:36;20.10;;;15.20;;
68229;SDS011;55048;52.220;5.160;2023-06-22T08:10:03;19.65;;;14.80;;
68229;SDS011;55048;52.220;5.160;2023-06-22T08:12:29;18.75;;;14.95;;
68229;SDS011;55048;52.220;5.160;2023-06-22T08:14:54;18.95;;;14.05;;
68229;SDS011;55048;52.220;5.160;2023-06-22T08:17:20;22.35;;;13.73;;
68229;SDS011;55048;52.220;5.160;2023-06-22T08:19:45;16.45;;;12.38;;
68229;SDS011;55048;52.220;5.160;2023-06-22T08:22:11;21.08;;;13.02;;
68229;SDS011;55048;52.220;5.160;2023-06-22T08:24:36;16.67;;;12.82;;
68229;SDS011;55048;52.220;5.160;2023-06-22T08:27:02;17.05;;;12.20;;
68229;SDS011;55048;52.220;5.160;2023-06-22T08:29:27;17.50;;;11.75;;
68229;SDS011;55048;52.220;5.160;2023-06-22T08:31:53;19.10;;;12.15;;
68229;SDS011;55048;52.220;5.160;2023-06-22T08:34:18;17.95;;;11.80;;
68229;SDS011;55048;52.220;5.160;2023-06-22T08:36:48;17.55;;;11.75;;
68229;SDS011;55048;52.220;5.160;2023-06-22T08:39:18;16.05;;;12.48;;
68229;SDS011;55048;52.220;5.160;2023-06-22T08:41:45;16.27;;;10.25;;
68229;SDS011;55048;52.220;5.160;2023-06-22T08:44:10;18.38;;;10.43;;
68229;SDS011;55048;52.220;5.160;2023-06-22T08:46:36;16.90;;;11.68;;
68229;SDS011;55048;52.220;5.160;2023-06-22T08:49:04;13.10;;;10.93;;
68229;SDS011;55048;52.220;5.160;2023-06-22T08:51:29;16.60;;;10.75;;
68229;SDS011;55048;52.220;5.160;2023-06-22T08:53:55;12.15;;;9.20;;
68229;SDS011;55048;52.220;5.160;2023-06-22T08:56:20;12.77;;;9.52;;
68229;SDS011;55048;52.220;5.160;2023-06-22T08:58:45;12.45;;;10.07;;
68229;SDS011;55048;52.220;5.160;2023-06-22T09:01:11;12.60;;;9.48;;
68229;SDS011;55048;52.220;5.160;2023-06-22T09:03:36;10.75;;;9.23;;
68229;SDS011;55048;52.220;5.160;2023-06-22T09:06:02;13.98;;;9.00;;
68229;SDS011;55048;52.220;5.160;2023-06-22T09:08:28;13.02;;;8.25;;
68229;SDS011;55048;52.220;5.160;2023-06-22T09:10:53;13.30;;;8.80;;
68229;SDS011;55048;52.220;5.160;2023-06-22T09:13:19;13.77;;;8.50;;
68229;SDS011;55048;52.220;5.160;2023-06-22T09:15:44;17.13;;;9.15;;
68229;SDS011;55048;52.220;5.160;2023-06-22T09:18:10;10.90;;;8.63;;
68229;SDS011;55048;52.220;5.160;2023-06-22T09:20:36;12.30;;;8.50;;
68229;SDS011;55048;52.220;5.160;2023-06-22T09:23:01;10.80;;;6.88;;
68229;SDS011;55048;52.220;5.160;2023-06-22T09:25:27;8.43;;;5.20;;
68229;SDS011;55048;52.220;5.160;2023-06-22T09:27:52;13.50;;;6.40;;
68229;SDS011;55048;52.220;5.160;2023-06-22T09:30:18;6.88;;;4.97;;
68229;SDS011;55048;52.220;5.160;2023-06-22T09:32:44;8.50;;;4.55;;
68229;SDS011;55048;52.220;5.160;2023-06-22T09:35:09;6.70;;;4.72;;
68229;SDS011;55048;52.220;5.160;2023-06-22T09:37:35;10.60;;;6.05;;
68229;SDS011;55048;52.220;5.160;2023-06-22T09:40:01;8.45;;;4.82;;
68229;SDS011;55048;52.220;5.160;2023-06-22T09:42:32;8.77;;;4.43;;
68229;SDS011;55048;52.220;5.160;2023-06-22T09:44:59;7.00;;;4.15;;
68229;SDS011;55048;52.220;5.160;2023-06-22T09:47:24;6.78;;;4.55;;
68229;SDS011;55048;52.220;5.160;2023-06-22T09:49:50;8.05;;;5.13;;
68229;SDS011;55048;52.220;5.160;2023-06-22T09:52:15;7.32;;;4.28;;
68229;SDS011;55048;52.220;5.160;2023-06-22T09:54:41;6.45;;;4.10;;
68229;SDS011;55048;52.220;5.160;2023-06-22T09:57:06;8.32;;;5.53;;
68229;SDS011;55048;52.220;5.160;2023-06-22T09:59:31;8.55;;;4.70;;
68229;SDS011;55048;52.220;5.160;2023-06-22T10:01:57;6.97;;;4.35;;
68229;SDS011;55048;52.220;5.160;2023-06-22T10:04:22;7.40;;;4.03;;
68229;SDS011;55048;52.220;5.160;2023-06-22T10:06:49;7.28;;;4.03;;
68229;SDS011;55048;52.220;5.160;2023-06-22T10:09:15;7.50;;;3.35;;
68229;SDS011;55048;52.220;5.160;2023-06-22T10:11:40;11.10;;;4.72;;
68229;SDS011;55048;52.220;5.160;2023-06-22T10:14:05;13.98;;;5.30;;
68229;SDS011;55048;52.220;5.160;2023-06-22T10:16:31;11.50;;;5.53;;
68229;SDS011;55048;52.220;5.160;2023-06-22T10:18:57;6.57;;;4.72;;
68229;SDS011;55048;52.220;5.160;2023-06-22T10:21:23;9.75;;;5.35;;
68229;SDS011;55048;52.220;5.160;2023-06-22T10:23:48;6.65;;;4.57;;
68229;SDS011;55048;52.220;5.160;2023-06-22T10:26:14;9.63;;;4.53;;
68229;SDS011;55048;52.220;5.160;2023-06-22T10:28:39;8.43;;;5.00;;
68229;SDS011;55048;52.220;5.160;2023-06-22T10:31:05;6.35;;;4.72;;
68229;SDS011;55048;52.220;5.160;2023-06-22T10:33:30;10.85;;;5.95;;
68229;SDS011;55048;52.220;5.160;2023-06-22T10:35:55;8.27;;;4.40;;
68229;SDS011;55048;52.220;5.160;2023-06-22T10:38:21;9.23;;;4.38;;
68229;SDS011;55048;52.220;5.160;2023-06-22T10:40:46;7.32;;;4.63;;
68229;SDS011;55048;52.220;5.160;2023-06-22T10:43:11;9.82;;;4.60;;
68229;SDS011;55048;52.220;5.160;2023-06-22T10:45:37;12.27;;;4.10;;
68229;SDS011;55048;52.220;5.160;2023-06-22T10:48:02;6.35;;;3.95;;
68229;SDS011;55048;52.220;5.160;2023-06-22T10:50:28;6.72;;;4.30;;
68229;SDS011;55048;52.220;5.160;2023-06-22T10:52:56;6.00;;;3.65;;
68229;SDS011;55048;52.220;5.160;2023-06-22T10:55:21;6.68;;;4.88;;
68229;SDS011;55048;52.220;5.160;2023-06-22T10:57:47;8.30;;;5.20;;
68229;SDS011;55048;52.220;5.160;2023-06-22T11:00:13;7.32;;;4.22;;
68229;SDS011;55048;52.220;5.160;2023-06-22T11:02:39;7.57;;;4.30;;
68229;SDS011;55048;52.220;5.160;2023-06-22T11:05:05;6.97;;;4.07;;
68229;SDS011;55048;52.220;5.160;2023-06-22T11:07:31;8.30;;;3.90;;
68229;SDS011;55048;52.220;5.160;2023-06-22T11:09:56;7.63;;;4.35;;
68229;SDS011;55048;52.220;5.160;2023-06-22T11:12:21;5.97;;;4.28;;
68229;SDS011;55048;52.220;5.160;2023-06-22T11:14:47;9.52;;;4.20;;
68229;SDS011;55048;52.220;5.160;2023-06-22T11:17:12;7.10;;;4.25;;
68229;SDS011;55048;52.220;5.160;2023-06-22T11:19:38;7.95;;;3.75;;
68229;SDS011;55048;52.220;5.160;2023-06-22T11:22:03;4.70;;;3.63;;
68229;SDS011;55048;52.220;5.160;2023-06-22T11:24:29;5.93;;;3.42;;
68229;SDS011;55048;52.220;5.160;2023-06-22T11:26:54;6.15;;;4.45;;
68229;SDS011;55048;52.220;5.160;2023-06-22T11:29:20;5.82;;;4.13;;
68229;SDS011;55048;52.220;5.160;2023-06-22T11:31:45;7.47;;;4.32;;
68229;SDS011;55048;52.220;5.160;2023-06-22T11:34:11;6.53;;;4.10;;
68229;SDS011;55048;52.220;5.160;2023-06-22T11:36:36;10.52;;;4.75;;
68229;SDS011;55048;52.220;5.160;2023-06-22T11:39:02;13.15;;;7.05;;
68229;SDS011;55048;52.220;5.160;2023-06-22T11:41:27;6.47;;;4.30;;
68229;SDS011;55048;52.220;5.160;2023-06-22T11:43:52;10.30;;;4.55;;
68229;SDS011;55048;52.220;5.160;2023-06-22T11:46:18;7.28;;;4.40;;
68229;SDS011;55048;52.220;5.160;2023-06-22T11:48:43;6.20;;;4.03;;
68229;SDS011;55048;52.220;5.160;2023-06-22T11:51:09;7.28;;;4.70;;
68229;SDS011;55048;52.220;5.160;2023-06-22T11:53:34;7.72;;;4.90;;
68229;SDS011;55048;52.220;5.160;2023-06-22T11:56:00;8.75;;;5.68;;
68229;SDS011;55048;52.220;5.160;2023-06-22T11:58:26;8.82;;;6.03;;
68229;SDS011;55048;52.220;5.160;2023-06-22T12:00:52;5.95;;;5.05;;
68229;SDS011;55048;52.220;5.160;2023-06-22T12:03:18;12.07;;;6.18;;
68229;SDS011;55048;52.220;5.160;2023-06-22T12:05:44;11.02;;;6.60;;
68229;SDS011;55048;52.220;5.160;2023-06-22T12:08:09;8.95;;;6.28;;
68229;SDS011;55048;52.220;5.160;2023-06-22T12:10:35;13.27;;;6.85;;
68229;SDS011;55048;52.220;5.160;2023-06-22T12:13:00;7.68;;;6.72;;
68229;SDS011;55048;52.220;5.160;2023-06-22T12:15:26;9.43;;;6.90;;
68229;SDS011;55048;52.220;5.160;2023-06-22T12:17:52;10.35;;;6.47;;
68229;SDS011;55048;52.220;5.160;2023-06-22T12:20:18;9.77;;;6.97;;
68229;SDS011;55048;52.220;5.160;2023-06-22T12:22:43;9.45;;;7.25;;
68229;SDS011;55048;52.220;5.160;2023-06-22T12:25:09;12.63;;;7.97;;
68229;SDS011;55048;52.220;5.160;2023-06-22T12:27:35;13.52;;;8.55;;
68229;SDS011;55048;52.220;5.160;2023-06-22T12:30:01;11.02;;;8.48;;
68229;SDS011;55048;52.220;5.160;2023-06-22T12:32:27;13.18;;;8.70;;
68229;SDS011;55048;52.220;5.160;2023-06-22T12:34:53;11.05;;;8.68;;
68229;SDS011;55048;52.220;5.160;2023-06-22T12:37:18;17.25;;;9.27;;
68229;SDS011;55048;52.220;5.160;2023-06-22T12:39:44;10.82;;;9.10;;
68229;SDS011;55048;52.220;5.160;2023-06-22T12:42:10;18.17;;;9.10;;
68229;SDS011;55048;52.220;5.160;2023-06-22T12:44:40;11.82;;;8.40;;
68229;SDS011;55048;52.220;5.160;2023-06-22T12:47:06;10.95;;;8.45;;
68229;SDS011;55048;52.220;5.160;2023-06-22T12:49:31;9.25;;;8.13;;
68229;SDS011;55048;52.220;5.160;2023-06-22T12:51:57;11.82;;;8.35;;
68229;SDS011;55048;52.220;5.160;2023-06-22T12:54:22;15.10;;;8.25;;
68229;SDS011;55048;52.220;5.160;2023-06-22T12:56:49;11.32;;;6.55;;
68229;SDS011;55048;52.220;5.160;2023-06-22T12:59:16;16.00;;;6.72;;
68229;SDS011;55048;52.220;5.160;2023-06-22T13:01:44;8.70;;;6.32;;
68229;SDS011;55048;52.220;5.160;2023-06-22T13:04:11;10.60;;;6.43;;
68229;SDS011;55048;52.220;5.160;2023-06-22T13:06:39;7.63;;;5.55;;
68229;SDS011;55048;52.220;5.160;2023-06-22T13:09:09;7.27;;;5.57;;
68229;SDS011;55048;52.220;5.160;2023-06-22T13:11:35;7.00;;;4.93;;
68229;SDS011;55048;52.220;5.160;2023-06-22T13:14:00;7.43;;;4.65;;
68229;SDS011;55048;52.220;5.160;2023-06-22T13:16:26;7.50;;;4.55;;
68229;SDS011;55048;52.220;5.160;2023-06-22T13:18:51;6.25;;;4.15;;
68229;SDS011;55048;52.220;5.160;2023-06-22T13:21:16;7.03;;;4.60;;
68229;SDS011;55048;52.220;5.160;2023-06-22T13:23:42;7.07;;;4.70;;
68229;SDS011;55048;52.220;5.160;2023-06-22T13:26:07;5.78;;;4.40;;
68229;SDS011;55048;52.220;5.160;2023-06-22T13:28:33;10.68;;;4.32;;
68229;SDS011;55048;52.220;5.160;2023-06-22T13:30:58;8.40;;;4.97;;
68229;SDS011;55048;52.220;5.160;2023-06-22T13:33:24;6.70;;;4.60;;
68229;SDS011;55048;52.220;5.160;2023-06-22T13:35:49;10.60;;;4.90;;
68229;SDS011;55048;52.220;5.160;2023-06-22T13:38:14;6.03;;;4.63;;
68229;SDS011;55048;52.220;5.160;2023-06-22T13:40:40;6.35;;;4.95;;
68229;SDS011;55048;52.220;5.160;2023-06-22T13:43:05;6.72;;;5.15;;
68229;SDS011;55048;52.220;5.160;2023-06-22T13:45:31;7.05;;;5.32;;
68229;SDS011;55048;52.220;5.160;2023-06-22T13:47:57;8.73;;;5.70;;
68229;SDS011;55048;52.220;5.160;2023-06-22T13:50:23;11.05;;;5.72;;
68229;SDS011;55048;52.220;5.160;2023-06-22T13:52:48;8.60;;;5.10;;
68229;SDS011;55048;52.220;5.160;2023-06-22T13:55:14;8.98;;;5.70;;
68229;SDS011;55048;52.220;5.160;2023-06-22T13:57:39;7.18;;;5.60;;
68229;SDS011;55048;52.220;5.160;2023-06-22T14:00:06;6.80;;;5.38;;
68229;SDS011;55048;52.220;5.160;2023-06-22T14:02:39;8.90;;;5.75;;
68229;SDS011;55048;52.220;5.160;2023-06-22T14:05:07;7.95;;;5.65;;
68229;SDS011;55048;52.220;5.160;2023-06-22T14:07:33;7.38;;;5.25;;
68229;SDS011;55048;52.220;5.160;2023-06-22T14:09:59;8.30;;;6.00;;
68229;SDS011;55048;52.220;5.160;2023-06-22T14:12:25;10.65;;;5.72;;
68229;SDS011;55048;52.220;5.160;2023-06-22T14:14:51;11.52;;;5.78;;
68229;SDS011;55048;52.220;5.160;2023-06-22T14:17:16;7.97;;;5.95;;
68229;SDS011;55048;52.220;5.160;2023-06-22T14:19:41;9.50;;;6.78;;
68229;SDS011;55048;52.220;5.160;2023-06-22T14:22:07;8.70;;;6.30;;
68229;SDS011;55048;52.220;5.160;2023-06-22T14:24:32;10.50;;;6.75;;
68229;SDS011;55048;52.220;5.160;2023-06-22T14:26:58;10.02;;;7.30;;
68229;SDS011;55048;52.220;5.160;2023-06-22T14:29:24;11.88;;;6.80;;
68229;SDS011;55048;52.220;5.160;2023-06-22T14:31:50;12.60;;;6.97;;
68229;SDS011;55048;52.220;5.160;2023-06-22T14:34:16;10.70;;;7.32;;
68229;SDS011;55048;52.220;5.160;2023-06-22T14:36:41;9.88;;;6.90;;